createdAt,value
2023-05-03T00:01:11.930Z,21.27
2023-05-03T00:03:41.252Z,19.52
2023-05-03T00:06:18.213Z,17.40
2023-05-03T00:08:47.609Z,17.15
2023-05-03T00:11:17.145Z,20.17
2023-05-03T00:13:46.997Z,18.25
2023-05-03T00:16:16.684Z,17.42
2023-05-03T00:18:46.784Z,17.52
2023-05-03T00:21:17.710Z,16.70
2023-05-03T00:23:47.322Z,17.02
2023-05-03T00:26:16.648Z,16.95
2023-05-03T00:28:46.030Z,15.95
2023-05-03T00:31:15.624Z,15.73
2023-05-03T00:33:45.008Z,16.23
2023-05-03T00:36:17.555Z,15.93
2023-05-03T00:38:46.976Z,14.50
2023-05-03T00:41:16.339Z,15.60
2023-05-03T00:43:45.717Z,15.23
2023-05-03T00:46:17.246Z,15.30
2023-05-03T00:48:51.285Z,14.35
2023-05-03T00:51:23.027Z,14.40
2023-05-03T00:53:53.157Z,13.50
2023-05-03T00:56:23.924Z,14.48
2023-05-03T00:58:56.845Z,15.15
2023-05-03T01:01:26.848Z,13.15
2023-05-03T01:03:56.670Z,13.82
2023-05-03T01:07:00.149Z,14.27
2023-05-03T01:10:03.310Z,14.75
2023-05-03T01:13:19.016Z,15.13
2023-05-03T01:16:31.474Z,14.40
2023-05-03T01:19:09.751Z,12.57
2023-05-03T01:24:25.852Z,14.23
2023-05-03T01:26:55.207Z,13.93
2023-05-03T01:29:24.509Z,13.45
2023-05-03T01:32:02.877Z,13.98
2023-05-03T01:35:02.670Z,14.25
2023-05-03T01:37:33.351Z,15.30
2023-05-03T01:40:11.081Z,15.68
2023-05-03T01:42:42.021Z,14.32
2023-05-03T01:45:13.084Z,15.75
2023-05-03T01:47:48.340Z,14.98
2023-05-03T01:50:30.636Z,14.45
2023-05-03T01:53:01.054Z,15.10
2023-05-03T01:55:33.556Z,13.95
2023-05-03T01:58:03.024Z,13.50
2023-05-03T02:00:35.193Z,15.63
2023-05-03T02:03:04.807Z,15.80
2023-05-03T02:05:34.276Z,12.75
2023-05-03T02:08:03.738Z,13.30
2023-05-03T02:10:33.076Z,11.98
2023-05-03T02:13:02.460Z,13.23
2023-05-03T02:15:33.215Z,13.32
2023-05-03T02:18:06.546Z,11.85
2023-05-03T02:20:38.764Z,12.50
2023-05-03T02:23:08.139Z,12.70
2023-05-03T02:25:37.430Z,13.65
2023-05-03T02:28:07.054Z,12.20
2023-05-03T02:30:37.727Z,12.95
2023-05-03T02:33:07.334Z,12.80
2023-05-03T02:35:37.449Z,12.07
2023-05-03T02:38:06.891Z,12.85
2023-05-03T02:40:36.438Z,11.85
2023-05-03T02:43:06.466Z,11.85
2023-05-03T02:45:37.945Z,13.07
2023-05-03T02:48:07.817Z,13.65
2023-05-03T02:50:37.319Z,13.63
2023-05-03T02:53:07.026Z,13.93
2023-05-03T02:55:36.724Z,13.20
2023-05-03T02:58:06.044Z,12.60
2023-05-03T03:00:35.525Z,11.85
2023-05-03T03:03:05.068Z,11.70
2023-05-03T03:05:34.507Z,11.65
2023-05-03T03:08:04.466Z,11.93
2023-05-03T03:10:34.080Z,13.00
2023-05-03T03:13:03.807Z,13.27
2023-05-03T03:15:33.067Z,12.52
2023-05-03T03:18:02.431Z,13.10
2023-05-03T03:20:31.825Z,12.52
2023-05-03T03:23:01.106Z,12.45
2023-05-03T03:25:30.586Z,12.35
2023-05-03T03:27:59.992Z,13.15
2023-05-03T03:30:29.331Z,13.05
2023-05-03T03:32:58.837Z,13.75
2023-05-03T03:35:29.285Z,12.65
2023-05-03T03:37:58.490Z,12.38
2023-05-03T03:40:27.718Z,13.23
2023-05-03T03:42:56.963Z,12.15
2023-05-03T03:45:26.291Z,12.63
2023-05-03T03:47:55.546Z,13.43
2023-05-03T03:50:26.155Z,13.23
2023-05-03T03:52:55.306Z,13.50
2023-05-03T03:55:24.572Z,12.57
2023-05-03T03:57:53.812Z,11.80
2023-05-03T04:00:23.061Z,11.68
2023-05-03T04:02:52.253Z,11.50
2023-05-03T04:05:21.640Z,12.20
2023-05-03T04:07:51.018Z,12.88
2023-05-03T04:10:20.201Z,13.20
2023-05-03T04:12:49.411Z,12.27
2023-05-03T04:15:18.613Z,12.32
2023-05-03T04:17:47.906Z,12.20
2023-05-03T04:20:18.769Z,11.68
2023-05-03T04:22:48.033Z,12.77
2023-05-03T04:25:18.088Z,12.77
2023-05-03T04:27:48.372Z,12.15
2023-05-03T04:30:18.662Z,11.95
2023-05-03T04:32:48.552Z,12.35
2023-05-03T04:35:19.737Z,11.95
2023-05-03T04:37:49.066Z,11.93
2023-05-03T04:40:20.691Z,12.18
2023-05-03T04:42:50.050Z,12.30
2023-05-03T04:45:19.940Z,12.18
2023-05-03T04:47:49.269Z,12.02
2023-05-03T04:50:18.790Z,11.38
2023-05-03T04:52:48.915Z,12.50
2023-05-03T04:55:19.065Z,12.18
2023-05-03T04:57:48.354Z,12.27
2023-05-03T05:00:18.088Z,11.65
2023-05-03T05:02:47.737Z,12.98
2023-05-03T05:05:18.872Z,14.38
2023-05-03T05:07:49.457Z,13.70
2023-05-03T05:10:18.894Z,12.75
2023-05-03T05:12:48.397Z,13.80
2023-05-03T05:15:17.779Z,14.38
2023-05-03T05:17:47.188Z,14.45
2023-05-03T05:20:17.670Z,14.40
2023-05-03T05:22:48.139Z,12.80
2023-05-03T05:25:17.518Z,12.93
2023-05-03T05:27:46.866Z,12.60
2023-05-03T05:30:16.591Z,13.35
2023-05-03T05:32:46.123Z,12.43
2023-05-03T05:35:18.637Z,11.63
2023-05-03T05:37:48.102Z,11.63
2023-05-03T05:40:17.593Z,14.25
2023-05-03T05:42:47.301Z,13.75
2023-05-03T05:45:16.842Z,14.77
2023-05-03T05:47:46.605Z,12.60
2023-05-03T05:50:18.717Z,15.60
2023-05-03T05:52:48.569Z,13.25
2023-05-03T05:55:18.123Z,12.88
2023-05-03T05:57:47.422Z,12.80
2023-05-03T06:00:18.449Z,11.98
2023-05-03T06:02:48.333Z,12.55
2023-05-03T06:05:17.722Z,12.68
2023-05-03T06:07:47.601Z,11.50
2023-05-03T06:10:17.123Z,11.75
2023-05-03T06:12:46.572Z,12.25
2023-05-03T06:15:15.901Z,13.43
2023-05-03T06:17:46.457Z,11.50
2023-05-03T06:20:15.885Z,12.60
2023-05-03T06:22:45.350Z,12.05
2023-05-03T06:25:17.656Z,12.00
2023-05-03T06:27:47.364Z,12.90
2023-05-03T06:30:17.783Z,12.50
2023-05-03T06:32:49.767Z,11.77
2023-05-03T06:35:20.628Z,12.45
2023-05-03T06:37:50.504Z,11.70
2023-05-03T06:40:19.906Z,11.85
2023-05-03T06:42:49.308Z,12.25
2023-05-03T06:45:19.441Z,11.57
2023-05-03T06:47:48.758Z,11.38
2023-05-03T06:50:18.013Z,11.82
2023-05-03T06:52:48.017Z,11.93
2023-05-03T06:55:17.443Z,12.70
2023-05-03T06:57:49.251Z,13.15
2023-05-03T07:00:19.138Z,12.43
2023-05-03T07:02:48.476Z,11.57
2023-05-03T07:05:18.129Z,13.02
2023-05-03T07:07:47.293Z,12.30
2023-05-03T07:10:16.510Z,12.50
2023-05-03T07:12:45.730Z,12.32
2023-05-03T07:15:15.866Z,11.80
2023-05-03T07:17:45.124Z,12.45
2023-05-03T07:20:14.900Z,10.93
2023-05-03T07:22:44.140Z,11.20
2023-05-03T07:25:15.506Z,10.05
2023-05-03T07:27:45.082Z,10.02
2023-05-03T07:30:14.844Z,10.25
2023-05-03T07:32:44.218Z,9.95
2023-05-03T07:35:13.511Z,10.50
2023-05-03T07:37:42.965Z,10.50
2023-05-03T07:40:13.339Z,10.93
2023-05-03T07:42:42.646Z,9.77
2023-05-03T07:45:12.680Z,10.55
2023-05-03T07:47:42.004Z,11.02
2023-05-03T07:50:11.538Z,9.73
2023-05-03T07:52:43.285Z,9.80
2023-05-03T07:55:12.705Z,9.55
2023-05-03T07:57:42.247Z,9.35
2023-05-03T08:00:13.353Z,10.90
2023-05-03T08:02:43.010Z,9.95
2023-05-03T08:05:15.894Z,9.75
2023-05-03T08:07:45.473Z,9.55
2023-05-03T08:10:14.816Z,9.93
2023-05-03T08:12:46.575Z,9.07
2023-05-03T08:15:15.880Z,10.25
2023-05-03T08:17:47.322Z,9.68
2023-05-03T08:20:17.659Z,10.90
2023-05-03T08:22:47.626Z,10.35
2023-05-03T08:25:18.730Z,10.43
2023-05-03T08:27:47.876Z,10.25
2023-05-03T08:30:17.584Z,10.48
2023-05-03T08:32:47.277Z,9.38
2023-05-03T08:35:17.392Z,10.50
2023-05-03T08:37:46.774Z,10.65
2023-05-03T08:40:16.593Z,9.98
2023-05-03T08:42:47.466Z,9.90
2023-05-03T08:45:18.054Z,10.65
2023-05-03T08:47:47.954Z,9.57
2023-05-03T08:50:17.825Z,9.75
2023-05-03T08:52:47.228Z,9.93
2023-05-03T08:55:16.465Z,9.93
2023-05-03T08:57:45.664Z,10.13
2023-05-03T09:00:16.739Z,10.80
2023-05-03T09:02:47.006Z,11.07
2023-05-03T09:05:19.321Z,10.40
2023-05-03T09:08:08.553Z,10.25
2023-05-03T09:10:43.506Z,9.63
2023-05-03T09:13:13.122Z,9.68
2023-05-03T09:15:42.403Z,10.00
2023-05-03T09:18:21.067Z,10.93
2023-05-03T09:20:53.347Z,11.23
2023-05-03T09:23:29.559Z,9.27
2023-05-03T09:26:01.264Z,8.52
2023-05-03T09:28:30.767Z,9.85
2023-05-03T09:31:11.446Z,9.35
2023-05-03T09:33:42.162Z,9.73
2023-05-03T09:36:12.410Z,9.27
2023-05-03T09:38:41.698Z,10.05
2023-05-03T09:41:11.756Z,10.85
2023-05-03T09:43:56.943Z,11.45
2023-05-03T09:46:26.623Z,8.82
2023-05-03T09:48:57.936Z,8.82
2023-05-03T09:51:27.340Z,8.85
2023-05-03T09:53:59.944Z,9.73
2023-05-03T09:56:30.117Z,11.32
2023-05-03T09:58:59.938Z,9.88
2023-05-03T10:01:29.368Z,11.45
2023-05-03T10:04:01.293Z,9.40
2023-05-03T10:06:45.275Z,8.85
2023-05-03T10:09:41.292Z,8.70
2023-05-03T10:12:14.100Z,9.65
2023-05-03T10:14:46.786Z,11.43
2023-05-03T10:17:46.554Z,9.27
2023-05-03T10:21:03.919Z,11.27
2023-05-03T10:23:33.090Z,9.27
2023-05-03T10:26:14.335Z,9.13
2023-05-03T10:28:44.490Z,8.15
2023-05-03T10:31:49.097Z,8.90
2023-05-03T10:34:27.034Z,9.05
2023-05-03T10:39:28.678Z,8.93
2023-05-03T10:42:04.870Z,8.98
2023-05-03T10:44:55.930Z,10.80
2023-05-03T10:47:26.019Z,10.25
2023-05-03T10:50:14.828Z,10.30
2023-05-03T10:52:43.893Z,10.75
2023-05-03T10:55:25.949Z,10.57
2023-05-03T10:58:01.023Z,10.75
2023-05-03T11:00:42.303Z,11.27
2023-05-03T11:03:24.571Z,11.20
2023-05-03T11:05:54.973Z,15.05
2023-05-03T11:08:27.397Z,12.88
2023-05-03T11:11:02.098Z,11.95
2023-05-03T11:13:31.578Z,13.27
2023-05-03T11:16:00.851Z,14.52
2023-05-03T11:18:30.751Z,13.82
2023-05-03T11:21:00.549Z,15.43
2023-05-03T11:23:32.698Z,14.73
2023-05-03T11:26:01.999Z,13.57
2023-05-03T11:28:31.353Z,14.35
2023-05-03T11:31:02.925Z,13.40
2023-05-03T11:33:32.631Z,12.75
2023-05-03T11:36:10.432Z,13.40
2023-05-03T11:38:41.608Z,12.48
2023-05-03T11:41:19.056Z,12.45
2023-05-03T11:44:00.662Z,12.15
2023-05-03T11:46:40.797Z,12.82
2023-05-03T11:49:11.256Z,13.52
2023-05-03T11:51:40.709Z,12.82
2023-05-03T11:54:24.261Z,12.13
2023-05-03T11:56:59.970Z,12.52
2023-05-03T11:59:41.255Z,13.82
2023-05-03T12:02:18.284Z,13.98
2023-05-03T12:04:48.657Z,16.45
2023-05-03T12:07:21.070Z,14.98
2023-05-03T12:10:06.537Z,14.65
2023-05-03T12:12:45.950Z,15.07
2023-05-03T12:15:33.874Z,12.93
2023-05-03T12:18:10.317Z,13.75
2023-05-03T12:23:15.576Z,14.50
2023-05-03T12:25:46.350Z,13.55
2023-05-03T12:28:20.804Z,13.38
2023-05-03T12:30:53.268Z,13.88
2023-05-03T12:33:23.566Z,13.88
2023-05-03T12:35:54.199Z,13.55
2023-05-03T12:38:25.295Z,10.95
2023-05-03T12:40:55.590Z,11.27
2023-05-03T12:43:24.999Z,12.25
2023-05-03T12:46:16.605Z,11.40
2023-05-03T12:48:46.409Z,10.68
2023-05-03T12:51:20.054Z,10.10
2023-05-03T12:53:55.233Z,13.98
2023-05-03T12:56:25.807Z,10.18
2023-05-03T12:59:15.062Z,11.10
2023-05-03T13:04:41.596Z,11.05
2023-05-03T13:07:12.629Z,10.73
2023-05-03T13:12:35.403Z,9.85
2023-05-03T13:15:06.311Z,9.73
2023-05-03T13:17:36.126Z,9.90
2023-05-03T13:20:09.170Z,11.43
2023-05-03T13:25:25.602Z,10.43
2023-05-03T13:27:55.520Z,11.45
2023-05-03T13:30:25.513Z,10.45
2023-05-03T13:32:55.011Z,11.25
2023-05-03T13:35:24.983Z,11.15
2023-05-03T13:37:54.990Z,10.55
2023-05-03T13:40:25.468Z,11.30
2023-05-03T13:42:54.764Z,11.95
2023-05-03T13:45:23.990Z,11.63
2023-05-03T13:48:10.600Z,11.07
2023-05-03T13:50:42.731Z,10.55
2023-05-03T13:53:12.622Z,11.20
2023-05-03T13:55:42.654Z,12.60
2023-05-03T13:58:12.009Z,12.35
2023-05-03T14:03:27.670Z,11.00
2023-05-03T14:05:57.828Z,11.48
2023-05-03T14:08:27.400Z,11.80
2023-05-03T14:10:57.011Z,11.32
2023-05-03T14:13:26.476Z,10.93
2023-05-03T14:15:56.336Z,11.63
2023-05-03T14:18:25.835Z,12.18
2023-05-03T14:20:55.412Z,10.75
2023-05-03T14:23:25.328Z,11.38
2023-05-03T14:25:54.636Z,12.27
2023-05-03T14:28:23.936Z,12.05
2023-05-03T14:30:53.318Z,11.95
2023-05-03T14:33:22.782Z,10.93
2023-05-03T14:35:53.300Z,11.77
2023-05-03T14:38:23.579Z,12.18
2023-05-03T14:40:54.396Z,11.48
2023-05-03T14:43:24.095Z,11.35
2023-05-03T14:45:53.255Z,12.75
2023-05-03T14:48:22.426Z,11.73
2023-05-03T14:50:53.269Z,12.70
2023-05-03T14:53:23.719Z,11.75
2023-05-03T14:55:54.737Z,11.48
2023-05-03T14:58:23.925Z,12.07
2023-05-03T15:00:53.146Z,10.85
2023-05-03T15:03:22.523Z,11.02
2023-05-03T15:05:52.965Z,11.18
2023-05-03T15:08:22.809Z,12.57
2023-05-03T15:10:52.750Z,13.13
2023-05-03T15:13:22.224Z,12.57
2023-05-03T15:15:51.620Z,11.15
2023-05-03T15:18:21.222Z,11.70
2023-05-03T15:20:50.409Z,11.80
2023-05-03T15:23:19.929Z,12.32
2023-05-03T15:25:49.333Z,11.20
2023-05-03T15:28:18.549Z,10.75
2023-05-03T15:30:47.939Z,11.23
2023-05-03T15:33:17.228Z,11.82
2023-05-03T15:35:46.492Z,12.05
2023-05-03T15:38:15.724Z,12.68
2023-05-03T15:40:45.189Z,12.30
2023-05-03T15:43:14.342Z,11.63
2023-05-03T15:45:43.535Z,12.90
2023-05-03T15:48:12.752Z,12.75
2023-05-03T15:50:41.909Z,10.45
2023-05-03T15:53:11.161Z,10.48
2023-05-03T15:55:40.428Z,10.85
2023-05-03T15:58:10.246Z,13.07
2023-05-03T16:00:40.063Z,12.57
2023-05-03T16:03:09.244Z,12.32
2023-05-03T16:05:42.268Z,11.88
2023-05-03T16:08:12.217Z,13.68
2023-05-03T16:10:41.854Z,11.57
2023-05-03T16:13:12.584Z,11.13
2023-05-03T16:15:42.063Z,11.30
2023-05-03T16:18:11.810Z,10.90
2023-05-03T16:20:41.044Z,10.73
2023-05-03T16:23:10.281Z,12.50
2023-05-03T16:25:39.467Z,12.13
2023-05-03T16:28:08.847Z,12.77
2023-05-03T16:30:38.412Z,13.40
2023-05-03T16:33:07.950Z,13.07
2023-05-03T16:35:38.283Z,13.27
2023-05-03T16:38:08.218Z,13.48
2023-05-03T16:40:40.868Z,13.32
2023-05-03T16:43:11.200Z,12.40
2023-05-03T16:45:40.522Z,12.57
2023-05-03T16:48:12.097Z,13.13
2023-05-03T16:50:44.870Z,13.25
2023-05-03T16:53:14.480Z,14.00
2023-05-03T16:55:43.884Z,13.18
2023-05-03T16:58:13.470Z,13.57
2023-05-03T17:00:43.397Z,12.52
2023-05-03T17:03:12.971Z,13.18
2023-05-03T17:05:43.146Z,12.73
2023-05-03T17:08:15.905Z,14.18
2023-05-03T17:10:46.326Z,12.75
2023-05-03T17:13:15.762Z,13.73
2023-05-03T17:15:50.571Z,12.52
2023-05-03T17:18:19.875Z,12.55
2023-05-03T17:20:49.200Z,12.40
2023-05-03T17:23:19.951Z,13.93
2023-05-03T17:25:49.908Z,13.32
2023-05-03T17:28:19.216Z,11.68
2023-05-03T17:30:48.516Z,11.77
2023-05-03T17:33:18.013Z,12.32
2023-05-03T17:35:47.212Z,12.63
2023-05-03T17:38:35.257Z,12.23
2023-05-03T17:41:12.554Z,12.30
2023-05-03T17:43:42.456Z,12.73
2023-05-03T17:46:14.605Z,12.35
2023-05-03T17:48:45.114Z,13.57
2023-05-03T17:51:14.547Z,13.07
2023-05-03T17:53:44.095Z,13.57
2023-05-03T17:56:20.605Z,12.90
2023-05-03T17:58:49.859Z,13.30
2023-05-03T18:01:19.116Z,12.65
2023-05-03T18:03:48.373Z,13.20
2023-05-03T18:06:17.904Z,13.68
2023-05-03T18:08:48.220Z,12.95
2023-05-03T18:11:17.367Z,14.35
2023-05-03T18:13:46.670Z,12.40
2023-05-03T18:16:15.972Z,13.25
2023-05-03T18:18:45.213Z,15.05
2023-05-03T18:21:14.585Z,13.55
2023-05-03T18:23:44.469Z,14.35
2023-05-03T18:26:13.766Z,13.38
2023-05-03T18:28:43.511Z,12.88
2023-05-03T18:31:19.563Z,13.35
2023-05-03T18:33:49.333Z,13.35
2023-05-03T18:36:19.581Z,12.95
2023-05-03T18:38:49.633Z,13.70
2023-05-03T18:41:18.983Z,13.55
2023-05-03T18:43:48.880Z,13.60
2023-05-03T18:46:21.986Z,13.35
2023-05-03T18:48:51.742Z,12.90
2023-05-03T18:51:20.979Z,13.48
2023-05-03T18:53:50.952Z,13.30
2023-05-03T18:56:20.145Z,13.93
2023-05-03T18:58:49.776Z,13.98
2023-05-03T19:01:19.362Z,14.23
2023-05-03T19:03:51.470Z,13.95
2023-05-03T19:06:20.911Z,13.02
2023-05-03T19:08:50.772Z,14.18
2023-05-03T19:11:19.982Z,14.32
2023-05-03T19:13:49.356Z,14.38
2023-05-03T19:16:18.658Z,14.07
2023-05-03T19:18:49.061Z,13.55
2023-05-03T19:21:18.380Z,13.18
2023-05-03T19:23:47.671Z,13.85
2023-05-03T19:26:16.864Z,14.25
2023-05-03T19:28:46.156Z,13.98
2023-05-03T19:31:15.424Z,14.18
2023-05-03T19:33:44.740Z,13.15
2023-05-03T19:36:17.069Z,13.88
2023-05-03T19:38:46.306Z,14.85
2023-05-03T19:41:15.431Z,13.32
2023-05-03T19:43:44.747Z,14.38
2023-05-03T19:46:13.909Z,13.93
2023-05-03T19:48:43.111Z,14.43
2023-05-03T19:51:17.642Z,14.07
2023-05-03T19:53:48.757Z,13.50
2023-05-03T19:56:19.387Z,14.60
2023-05-03T19:58:48.817Z,14.73
2023-05-03T20:01:18.072Z,14.30
2023-05-03T20:03:48.134Z,14.90
2023-05-03T20:06:17.423Z,14.90
2023-05-03T20:08:46.594Z,13.93
2023-05-03T20:11:15.782Z,14.60
2023-05-03T20:13:44.970Z,13.15
2023-05-03T20:16:14.280Z,14.13
2023-05-03T20:18:44.339Z,14.48
2023-05-03T20:21:14.877Z,13.60
2023-05-03T20:23:44.168Z,15.43
2023-05-03T20:26:13.340Z,14.40
2023-05-03T20:28:42.571Z,14.85
2023-05-03T20:31:14.487Z,15.98
2023-05-03T20:33:43.853Z,16.50
2023-05-03T20:36:15.459Z,14.65
2023-05-03T20:38:44.843Z,15.57
2023-05-03T20:41:14.181Z,15.30
2023-05-03T20:43:43.457Z,15.57
2023-05-03T20:46:12.904Z,16.13
2023-05-03T20:48:42.251Z,15.27
2023-05-03T20:51:11.903Z,15.93
2023-05-03T20:53:41.326Z,15.32
2023-05-03T20:56:12.267Z,15.65
2023-05-03T20:58:41.627Z,15.27
2023-05-03T21:01:11.168Z,16.23
2023-05-03T21:03:40.539Z,15.93
2023-05-03T21:06:09.888Z,16.63
2023-05-03T21:08:39.249Z,15.18
2023-05-03T21:11:09.341Z,17.13
2023-05-03T21:13:39.453Z,16.05
2023-05-03T21:16:10.181Z,16.05
2023-05-03T21:18:39.511Z,16.08
2023-05-03T21:21:08.877Z,16.45
2023-05-03T21:23:38.208Z,16.05
2023-05-03T21:26:07.750Z,16.38
2023-05-03T21:28:37.166Z,16.00
2023-05-03T21:31:06.644Z,16.77
2023-05-03T21:33:35.973Z,16.77
2023-05-03T21:36:05.673Z,16.25
2023-05-03T21:38:35.962Z,15.57
2023-05-03T21:41:11.524Z,16.75
2023-05-03T21:43:40.689Z,16.08
2023-05-03T21:46:10.615Z,17.20
2023-05-03T21:48:41.261Z,16.83
2023-05-03T21:51:18.294Z,17.73
2023-05-03T21:53:48.326Z,16.85
2023-05-03T21:56:17.872Z,18.17
2023-05-03T21:58:47.298Z,17.45
2023-05-03T22:01:22.566Z,17.80
2023-05-03T22:03:52.092Z,16.98
2023-05-03T22:06:21.380Z,17.30
2023-05-03T22:08:50.581Z,17.75
2023-05-03T22:11:20.485Z,18.88
2023-05-03T22:14:05.856Z,16.98
2023-05-03T22:16:38.557Z,17.92
2023-05-03T22:19:08.822Z,18.38
2023-05-03T22:21:38.038Z,18.30
2023-05-03T22:24:08.427Z,18.98
2023-05-03T22:26:37.867Z,17.38
2023-05-03T22:29:07.250Z,18.45
2023-05-03T22:31:36.432Z,18.60
2023-05-03T22:34:05.723Z,17.77
2023-05-03T22:36:35.352Z,18.30
2023-05-03T22:39:06.658Z,18.63
2023-05-03T22:41:35.909Z,18.27
2023-05-03T22:44:05.336Z,18.67
2023-05-03T22:46:34.635Z,18.02
2023-05-03T22:49:04.117Z,18.05
2023-05-03T22:51:34.376Z,18.40
2023-05-03T22:54:03.610Z,19.15
2023-05-03T22:56:32.814Z,19.33
2023-05-03T22:59:02.000Z,18.92
2023-05-03T23:01:31.848Z,18.60
2023-05-03T23:04:01.208Z,19.65
2023-05-03T23:06:30.437Z,18.90
2023-05-03T23:09:01.992Z,18.75
2023-05-03T23:11:31.196Z,19.75
2023-05-03T23:14:00.393Z,20.25
2023-05-03T23:16:29.864Z,20.75
2023-05-03T23:18:59.546Z,20.13
2023-05-03T23:21:28.755Z,19.60
2023-05-03T23:23:58.007Z,18.83
2023-05-03T23:26:28.928Z,19.67
2023-05-03T23:28:58.394Z,19.27
2023-05-03T23:31:29.130Z,19.30
2023-05-03T23:34:00.657Z,19.25
2023-05-03T23:36:30.295Z,25.25
2023-05-03T23:38:59.500Z,22.23
2023-05-03T23:41:28.833Z,22.33
2023-05-03T23:43:58.213Z,24.05
2023-05-03T23:46:27.737Z,24.55
2023-05-03T23:48:57.071Z,21.98
2023-05-03T23:51:26.428Z,21.17
2023-05-03T23:53:55.705Z,19.25
2023-05-03T23:56:25.135Z,19.60
2023-05-03T23:58:54.383Z,20.15
